Time;durP1;ratioP1;P1;durP2;ratioP2;P2;SDS_P1;SDS_P2;PMS_P1;PMS_P2;Temp;Humidity;BMP_temperature;BMP_pressure;BME280_temperature;BME280_humidity;BME280_pressure;Samples;Min_cycle;Max_cycle;Signal;HPM_P1;HPM_P2
2022/02/22 00:00:04;;;;;;;10.73;2.47;;;;;;;;;;5085211;28;20477;-74
2022/02/22 00:02:32;;;;;;;4.83;1.30;;;;;;;;;;5100561;28;21025;-74
2022/02/22 00:05:00;;;;;;;7.57;2.17;;;;;;;;;;5096261;28;20718;-74
2022/02/22 00:07:29;;;;;;;10.17;3.40;;;;;;;;;;5094075;28;20448;-74
2022/02/22 00:09:57;;;;;;;6.17;2.10;;;;;;;;;;5082527;28;20920;-74
2022/02/22 00:12:28;;;;;;;16.73;2.53;;;;;;;;;;5103773;28;20998;-74
2022/02/22 00:15:02;;;;;;;14.70;3.30;;;;;;;;;;5116507;28;20451;-73
2022/02/22 00:17:33;;;;;;;16.77;2.50;;;;;;;;;;5116733;28;20470;-74
2022/02/22 00:20:01;;;;;;;14.80;2.73;;;;;;;;;;5117309;28;20443;-74
2022/02/22 00:22:34;;;;;;;15.73;3.40;;;;;;;;;;5102348;28;20451;-73
2022/02/22 00:25:01;;;;;;;12.90;3.60;;;;;;;;;;5096157;28;20482;-73
2022/02/22 00:27:29;;;;;;;9.40;2.63;;;;;;;;;;5089836;28;20529;-74
2022/02/22 00:29:57;;;;;;;9.43;3.00;;;;;;;;;;5082568;28;20534;-74
2022/02/22 00:32:24;;;;;;;8.97;2.20;;;;;;;;;;5092518;28;20563;-73
2022/02/22 00:34:58;;;;;;;6.23;1.73;;;;;;;;;;5076189;28;20860;-73
2022/02/22 00:37:26;;;;;;;10.97;2.53;;;;;;;;;;5076153;28;20491;-74
2022/02/22 00:39:55;;;;;;;10.17;3.10;;;;;;;;;;5076126;28;20467;-74
2022/02/22 00:42:25;;;;;;;17.03;3.30;;;;;;;;;;5087442;28;20452;-74
2022/02/22 00:44:53;;;;;;;11.33;3.73;;;;;;;;;;5109238;28;20451;-75
2022/02/22 00:47:21;;;;;;;14.80;3.50;;;;;;;;;;5097338;28;20457;-74
2022/02/22 00:49:49;;;;;;;12.90;5.43;;;;;;;;;;5085094;28;20448;-74
2022/02/22 00:52:17;;;;;;;11.43;3.53;;;;;;;;;;5094442;28;20480;-74
2022/02/22 00:54:45;;;;;;;20.17;2.93;;;;;;;;;;5075087;28;20787;-74
2022/02/22 00:57:14;;;;;;;11.53;2.93;;;;;;;;;;5075085;28;20554;-74
2022/02/22 00:59:42;;;;;;;7.50;3.20;;;;;;;;;;5075879;28;20775;-74
2022/02/22 01:02:10;;;;;;;19.07;5.17;;;;;;;;;;5106388;28;20489;-75
2022/02/22 01:04:37;;;;;;;20.60;3.70;;;;;;;;;;5116622;28;20854;-74
2022/02/22 01:07:16;;;;;;;18.00;2.63;;;;;;;;;;5116304;28;20458;-74
2022/02/22 01:09:43;;;;;;;18.50;4.70;;;;;;;;;;5116294;28;20477;-74
2022/02/22 01:12:11;;;;;;;10.60;4.27;;;;;;;;;;5100833;28;20564;-74
2022/02/22 01:14:40;;;;;;;14.97;3.70;;;;;;;;;;5096292;28;20447;-74
2022/02/22 01:17:10;;;;;;;8.37;1.87;;;;;;;;;;5095231;28;20460;-74
2022/02/22 01:19:38;;;;;;;11.03;4.13;;;;;;;;;;5095953;28;20450;-74
2022/02/22 01:22:06;;;;;;;15.80;2.93;;;;;;;;;;5094281;28;20460;-74
2022/02/22 01:24:36;;;;;;;13.10;3.13;;;;;;;;;;5094948;28;20569;-74
2022/02/22 01:27:04;;;;;;;12.23;2.40;;;;;;;;;;5084121;28;20461;-74
2022/02/22 01:29:32;;;;;;;9.07;2.40;;;;;;;;;;5079020;28;20531;-74
2022/02/22 01:32:07;;;;;;;11.37;3.30;;;;;;;;;;5089627;28;20892;-74
2022/02/22 01:34:40;;;;;;;26.67;3.13;;;;;;;;;;5079251;28;20458;-75
2022/02/22 01:37:08;;;;;;;13.30;2.63;;;;;;;;;;5079439;28;20545;-74
2022/02/22 01:39:36;;;;;;;16.37;4.00;;;;;;;;;;5088108;28;20524;-74
2022/02/22 01:42:09;;;;;;;8.50;2.47;;;;;;;;;;5087972;28;20539;-74
2022/02/22 01:44:36;;;;;;;10.00;4.30;;;;;;;;;;5078893;28;20448;-74
2022/02/22 01:47:05;;;;;;;23.47;4.70;;;;;;;;;;5079001;28;20840;-74
2022/02/22 01:49:34;;;;;;;15.90;4.33;;;;;;;;;;5078841;28;20774;-74
2022/02/22 01:52:02;;;;;;;12.43;3.20;;;;;;;;;;5100965;28;20537;-74
2022/02/22 01:54:32;;;;;;;14.37;3.70;;;;;;;;;;5092113;28;20521;-73
2022/02/22 01:57:00;;;;;;;16.80;4.80;;;;;;;;;;5083811;28;20453;-74
2022/02/22 01:59:28;;;;;;;18.50;3.17;;;;;;;;;;5082332;28;20460;-73
2022/02/22 02:01:56;;;;;;;14.80;2.83;;;;;;;;;;5091775;28;20557;-73
2022/02/22 02:04:28;;;;;;;16.73;4.10;;;;;;;;;;5094245;28;20480;-74
2022/02/22 02:06:58;;;;;;;21.03;3.50;;;;;;;;;;5086097;28;20525;-73
2022/02/22 02:09:26;;;;;;;21.57;3.90;;;;;;;;;;5079290;28;20743;-73
2022/02/22 02:11:55;;;;;;;19.10;3.20;;;;;;;;;;5087661;28;20554;-74
2022/02/22 02:14:24;;;;;;;13.80;2.23;;;;;;;;;;5083523;28;20816;-74
2022/02/22 02:16:51;;;;;;;12.83;3.00;;;;;;;;;;5096570;28;20761;-73
2022/02/22 02:19:19;;;;;;;6.67;2.17;;;;;;;;;;5098645;28;20479;-74
2022/02/22 02:21:48;;;;;;;10.87;3.53;;;;;;;;;;5091576;28;20460;-73
2022/02/22 02:24:18;;;;;;;12.63;2.13;;;;;;;;;;5094785;28;20487;-73
2022/02/22 02:26:46;;;;;;;10.13;1.77;;;;;;;;;;5099092;28;20566;-73
2022/02/22 02:29:14;;;;;;;10.87;2.80;;;;;;;;;;5098479;28;20478;-73
2022/02/22 02:31:43;;;;;;;6.60;2.60;;;;;;;;;;5097402;28;20454;-73
2022/02/22 02:34:12;;;;;;;5.97;1.20;;;;;;;;;;5098299;28;20510;-73
2022/02/22 02:36:40;;;;;;;9.23;2.10;;;;;;;;;;5097521;28;20981;-73
2022/02/22 02:39:09;;;;;;;15.67;3.60;;;;;;;;;;5111060;28;20561;-73
2022/02/22 02:41:38;;;;;;;15.50;3.57;;;;;;;;;;5105063;28;20455;-73
2022/02/22 02:44:07;;;;;;;12.13;2.43;;;;;;;;;;5109939;28;20523;-73
2022/02/22 02:46:35;;;;;;;14.67;3.53;;;;;;;;;;5096597;28;20492;-73
2022/02/22 02:49:03;;;;;;;9.73;3.50;;;;;;;;;;5089542;28;20791;-73
2022/02/22 02:51:31;;;;;;;21.60;2.70;;;;;;;;;;5101928;28;20491;-73
2022/02/22 02:53:59;;;;;;;20.40;4.17;;;;;;;;;;5103957;28;20479;-73
2022/02/22 02:56:27;;;;;;;11.83;5.40;;;;;;;;;;5098149;28;20482;-74
2022/02/22 02:58:57;;;;;;;14.40;3.90;;;;;;;;;;5095849;28;21135;-73
2022/02/22 03:01:24;;;;;;;11.00;2.60;;;;;;;;;;5089507;28;20530;-73
2022/02/22 03:03:52;;;;;;;26.77;5.87;;;;;;;;;;5097755;28;20547;-73
2022/02/22 03:06:20;;;;;;;16.57;3.83;;;;;;;;;;5097822;28;20855;-73
2022/02/22 03:08:48;;;;;;;9.73;2.57;;;;;;;;;;5097943;28;20459;-73
2022/02/22 03:11:16;;;;;;;27.20;4.73;;;;;;;;;;5097554;28;20459;-73
2022/02/22 03:13:44;;;;;;;15.00;2.90;;;;;;;;;;5112951;28;20489;-74
2022/02/22 03:16:13;;;;;;;16.27;4.33;;;;;;;;;;5105273;28;20488;-73
2022/02/22 03:18:42;;;;;;;17.50;4.40;;;;;;;;;;5097888;28;20508;-73
2022/02/22 03:21:13;;;;;;;18.90;4.77;;;;;;;;;;5117996;28;20458;-73
2022/02/22 03:23:41;;;;;;;17.73;4.13;;;;;;;;;;5102551;28;20870;-73
2022/02/22 03:26:09;;;;;;;10.33;2.60;;;;;;;;;;5094549;28;20463;-73
2022/02/22 03:28:37;;;;;;;14.33;2.67;;;;;;;;;;5095532;28;20448;-73
2022/02/22 03:31:04;;;;;;;12.53;3.13;;;;;;;;;;5097445;28;20486;-73
2022/02/22 03:33:35;;;;;;;11.50;2.93;;;;;;;;;;5098648;28;20480;-73
2022/02/22 03:36:07;;;;;;;12.30;3.03;;;;;;;;;;5100096;28;20459;-74
2022/02/22 03:38:35;;;;;;;16.50;3.63;;;;;;;;;;5112838;28;20467;-74
2022/02/22 03:41:03;;;;;;;15.87;4.00;;;;;;;;;;5115314;28;20469;-74
2022/02/22 03:43:31;;;;;;;10.23;3.53;;;;;;;;;;5097364;28;20851;-74
2022/02/22 03:45:59;;;;;;;16.27;4.23;;;;;;;;;;5090055;28;20892;-74
2022/02/22 03:48:27;;;;;;;15.20;2.97;;;;;;;;;;5079532;28;20456;-74
2022/02/22 03:50:56;;;;;;;9.07;2.90;;;;;;;;;;5085093;28;20471;-74
2022/02/22 03:53:24;;;;;;;16.97;3.40;;;;;;;;;;5096622;28;20930;-75
2022/02/22 03:55:52;;;;;;;12.40;3.50;;;;;;;;;;5097195;28;20459;-74
2022/02/22 03:58:20;;;;;;;10.73;2.63;;;;;;;;;;5094045;28;20456;-74
2022/02/22 04:00:47;;;;;;;13.10;2.57;;;;;;;;;;5096603;28;20576;-73
2022/02/22 04:03:15;;;;;;;13.17;3.03;;;;;;;;;;5095673;28;20946;-74
2022/02/22 04:05:46;;;;;;;17.13;3.60;;;;;;;;;;5095901;28;20487;-73
2022/02/22 04:08:18;;;;;;;22.47;3.63;;;;;;;;;;5079193;28;20526;-73
2022/02/22 04:10:45;;;;;;;10.53;2.90;;;;;;;;;;5108725;28;20466;-73
2022/02/22 04:13:13;;;;;;;35.33;4.10;;;;;;;;;;5083511;28;20760;-74
2022/02/22 04:15:41;;;;;;;15.70;3.40;;;;;;;;;;5082822;28;20463;-74
2022/02/22 04:18:09;;;;;;;13.87;3.50;;;;;;;;;;5083991;28;20448;-73
2022/02/22 04:20:36;;;;;;;17.33;3.47;;;;;;;;;;5101798;28;20459;-73
2022/02/22 04:23:04;;;;;;;9.47;1.80;;;;;;;;;;5081663;28;20887;-73
2022/02/22 04:25:34;;;;;;;12.73;3.40;;;;;;;;;;5093830;28;20455;-73
2022/02/22 04:28:01;;;;;;;17.53;3.27;;;;;;;;;;5082660;28;20451;-73
2022/02/22 04:30:29;;;;;;;16.13;3.37;;;;;;;;;;5086313;28;20445;-73
2022/02/22 04:32:57;;;;;;;13.00;2.73;;;;;;;;;;5083137;28;20476;-73
2022/02/22 04:35:25;;;;;;;13.93;2.43;;;;;;;;;;5095423;28;20524;-73
2022/02/22 04:37:53;;;;;;;17.40;3.23;;;;;;;;;;5082062;28;20445;-73
2022/02/22 04:40:20;;;;;;;23.80;3.60;;;;;;;;;;5091511;28;20525;-74
2022/02/22 04:42:50;;;;;;;14.07;3.20;;;;;;;;;;5082653;28;20527;-73
2022/02/22 04:45:19;;;;;;;14.87;3.50;;;;;;;;;;5081928;28;20457;-74
2022/02/22 04:47:47;;;;;;;13.13;3.37;;;;;;;;;;5076379;28;20867;-73
2022/02/22 04:50:16;;;;;;;14.97;3.03;;;;;;;;;;5085830;28;20876;-75
2022/02/22 04:52:43;;;;;;;23.60;3.60;;;;;;;;;;5088586;28;20517;-73
2022/02/22 04:55:11;;;;;;;22.47;3.90;;;;;;;;;;5075354;28;20787;-74
2022/02/22 04:57:39;;;;;;;16.60;3.97;;;;;;;;;;5091215;28;20460;-73
2022/02/22 05:00:13;;;;;;;14.30;2.63;;;;;;;;;;5108528;28;20757;-73
2022/02/22 05:02:41;;;;;;;10.03;2.67;;;;;;;;;;5079810;28;20463;-74
2022/02/22 05:05:11;;;;;;;24.73;3.90;;;;;;;;;;5079888;28;20447;-74
2022/02/22 05:07:38;;;;;;;13.93;4.40;;;;;;;;;;5080795;28;20788;-74
2022/02/22 05:10:07;;;;;;;12.60;3.10;;;;;;;;;;5105968;28;20717;-74
2022/02/22 05:12:35;;;;;;;21.73;3.33;;;;;;;;;;5120372;28;20454;-73
2022/02/22 05:15:02;;;;;;;11.43;2.27;;;;;;;;;;5096655;28;20536;-74
2022/02/22 05:17:32;;;;;;;11.53;3.33;;;;;;;;;;5095867;28;20443;-74
2022/02/22 05:20:00;;;;;;;14.53;3.90;;;;;;;;;;5098395;28;20538;-74
2022/02/22 05:22:27;;;;;;;10.43;2.90;;;;;;;;;;5098905;28;20460;-74
2022/02/22 05:24:55;;;;;;;18.33;3.33;;;;;;;;;;5099238;28;20463;-76
2022/02/22 05:27:23;;;;;;;7.77;2.03;;;;;;;;;;5080374;28;20888;-74
2022/02/22 05:29:51;;;;;;;11.27;4.03;;;;;;;;;;5082508;28;20457;-74
2022/02/22 05:32:19;;;;;;;9.20;4.10;;;;;;;;;;5087787;28;20879;-74
2022/02/22 05:34:48;;;;;;;13.57;3.10;;;;;;;;;;5081400;28;20563;-74
2022/02/22 05:37:16;;;;;;;10.07;3.17;;;;;;;;;;5105882;28;20546;-74
2022/02/22 05:39:43;;;;;;;10.40;3.07;;;;;;;;;;5093352;28;20448;-73
2022/02/22 05:42:11;;;;;;;16.73;2.93;;;;;;;;;;5087475;28;20885;-73
2022/02/22 05:44:39;;;;;;;22.67;3.73;;;;;;;;;;5094131;28;20522;-74
2022/02/22 05:47:07;;;;;;;11.27;2.43;;;;;;;;;;5086190;28;20452;-74
2022/02/22 05:49:35;;;;;;;15.67;4.20;;;;;;;;;;5103654;28;20930;-74
2022/02/22 05:52:04;;;;;;;12.23;2.90;;;;;;;;;;5106881;28;20487;-74
2022/02/22 05:54:32;;;;;;;17.70;3.37;;;;;;;;;;5081214;28;20480;-73
2022/02/22 05:57:00;;;;;;;19.57;3.20;;;;;;;;;;5092466;28;20451;-74
2022/02/22 05:59:27;;;;;;;11.27;2.60;;;;;;;;;;5100526;28;20458;-74
2022/02/22 06:01:55;;;;;;;15.63;3.10;;;;;;;;;;5111103;28;20459;-73
2022/02/22 06:04:24;;;;;;;12.57;3.47;;;;;;;;;;5090202;28;20883;-74
2022/02/22 06:06:52;;;;;;;15.07;4.13;;;;;;;;;;5096740;28;20949;-76
2022/02/22 06:09:22;;;;;;;10.97;3.43;;;;;;;;;;5098654;28;20448;-74
2022/02/22 06:11:49;;;;;;;12.53;2.67;;;;;;;;;;5101187;28;20743;-73
2022/02/22 06:14:17;;;;;;;10.50;3.33;;;;;;;;;;5096629;28;20734;-74
2022/02/22 06:16:48;;;;;;;20.57;4.50;;;;;;;;;;5096664;28;20474;-72
2022/02/22 06:19:16;;;;;;;20.43;3.87;;;;;;;;;;5095867;28;20840;-75
2022/02/22 06:21:44;;;;;;;13.00;3.63;;;;;;;;;;5117208;28;21016;-74
2022/02/22 06:24:13;;;;;;;9.43;2.10;;;;;;;;;;5104212;28;20452;-74
2022/02/22 06:26:44;;;;;;;12.07;2.20;;;;;;;;;;5089088;28;20457;-74
2022/02/22 06:29:12;;;;;;;20.70;2.90;;;;;;;;;;5075926;28;20464;-75
2022/02/22 06:31:39;;;;;;;19.83;3.80;;;;;;;;;;5067283;28;20556;-74
2022/02/22 06:34:10;;;;;;;16.57;4.53;;;;;;;;;;5074852;28;20742;-74
2022/02/22 06:36:38;;;;;;;13.30;2.50;;;;;;;;;;5087435;28;20456;-74
2022/02/22 06:39:06;;;;;;;21.03;3.80;;;;;;;;;;5081904;28;20459;-75
2022/02/22 06:41:34;;;;;;;14.47;3.97;;;;;;;;;;5079429;28;20526;-74
2022/02/22 06:44:07;;;;;;;10.80;2.43;;;;;;;;;;5073152;28;20531;-74
2022/02/22 06:46:35;;;;;;;14.10;3.23;;;;;;;;;;5083477;28;20456;-74
2022/02/22 06:49:07;;;;;;;19.83;4.40;;;;;;;;;;5074598;28;20460;-74
2022/02/22 06:51:35;;;;;;;18.87;3.23;;;;;;;;;;5072639;28;20813;-74
2022/02/22 06:54:03;;;;;;;14.43;4.63;;;;;;;;;;5088341;28;20550;-74
2022/02/22 06:56:33;;;;;;;27.03;3.50;;;;;;;;;;5094332;28;20804;-74
2022/02/22 06:59:02;;;;;;;14.27;3.30;;;;;;;;;;5076568;28;20459;-74
2022/02/22 07:01:34;;;;;;;18.40;5.00;;;;;;;;;;5068324;28;20461;-74
2022/02/22 07:04:02;;;;;;;23.53;6.20;;;;;;;;;;5058635;28;20456;-74
2022/02/22 07:06:31;;;;;;;12.00;3.70;;;;;;;;;;5068843;28;20485;-74
2022/02/22 07:08:59;;;;;;;26.57;3.83;;;;;;;;;;5065014;28;20557;-74
2022/02/22 07:11:37;;;;;;;24.20;4.77;;;;;;;;;;5064355;28;20508;-73
2022/02/22 07:14:07;;;;;;;18.03;3.90;;;;;;;;;;5089881;28;20860;-73
2022/02/22 07:16:42;;;;;;;15.70;4.20;;;;;;;;;;5088026;28;20452;-73
2022/02/22 07:19:13;;;;;;;21.57;4.97;;;;;;;;;;5066472;28;20456;-73
2022/02/22 07:21:43;;;;;;;21.60;3.50;;;;;;;;;;5080855;28;20551;-73
2022/02/22 07:24:21;;;;;;;13.30;2.77;;;;;;;;;;5080654;28;20540;-74
2022/02/22 07:26:49;;;;;;;12.83;3.03;;;;;;;;;;5094957;28;20462;-74
2022/02/22 07:29:19;;;;;;;17.07;4.73;;;;;;;;;;5096911;28;20460;-72
2022/02/22 07:31:50;;;;;;;20.40;3.47;;;;;;;;;;5102717;28;20443;-72
2022/02/22 07:34:20;;;;;;;26.43;6.20;;;;;;;;;;5096495;28;20487;-75
2022/02/22 07:36:51;;;;;;;19.10;4.00;;;;;;;;;;5095682;28;20448;-73
2022/02/22 07:39:19;;;;;;;14.80;3.13;;;;;;;;;;5096066;28;20532;-74
2022/02/22 07:41:50;;;;;;;15.57;3.47;;;;;;;;;;5090782;28;20450;-73
2022/02/22 07:44:19;;;;;;;20.27;4.20;;;;;;;;;;5090985;28;20542;-73
2022/02/22 07:46:48;;;;;;;15.67;5.13;;;;;;;;;;5079772;28;20449;-72
2022/02/22 07:49:15;;;;;;;19.30;4.83;;;;;;;;;;5083512;28;20460;-74
2022/02/22 07:51:54;;;;;;;11.63;4.30;;;;;;;;;;5084380;28;20729;-73
2022/02/22 07:54:32;;;;;;;14.23;3.57;;;;;;;;;;5089781;28;20556;-73
2022/02/22 07:57:04;;;;;;;9.20;3.10;;;;;;;;;;5089138;28;20459;-73
2022/02/22 07:59:45;;;;;;;13.47;3.10;;;;;;;;;;5088949;28;20441;-73
2022/02/22 08:02:13;;;;;;;17.87;3.47;;;;;;;;;;5085196;28;20534;-73
2022/02/22 08:04:42;;;;;;;9.27;2.97;;;;;;;;;;5094885;28;21000;-73
2022/02/22 08:07:14;;;;;;;17.47;3.07;;;;;;;;;;5093096;28;20488;-73
2022/02/22 08:09:49;;;;;;;13.47;3.13;;;;;;;;;;5090207;28;20448;-72
2022/02/22 08:12:41;;;;;;;;;;;;;;;;;;;;;
2022/02/22 08:15:16;;;;;;;19.07;2.43;;;;;;;;;;5086802;28;20945;-73
2022/02/22 08:17:50;;;;;;;16.00;3.40;;;;;;;;;;5089640;28;20485;-72
2022/02/22 08:20:19;;;;;;;12.77;2.20;;;;;;;;;;5087472;28;20448;-72
2022/02/22 08:22:47;;;;;;;9.23;2.57;;;;;;;;;;5094728;28;20452;-72
2022/02/22 08:25:15;;;;;;;13.40;3.70;;;;;;;;;;5093533;28;20898;-72
2022/02/22 08:30:29;;;;;;;14.27;4.00;;;;;;;;;;5089603;28;20451;-72
2022/02/22 08:33:03;;;;;;;9.00;3.30;;;;;;;;;;5098261;28;20517;-72
2022/02/22 08:35:32;;;;;;;18.27;3.60;;;;;;;;;;5093999;28;21130;-72
2022/02/22 08:38:09;;;;;;;12.00;4.33;;;;;;;;;;5098021;28;20807;-72
2022/02/22 08:40:41;;;;;;;13.90;4.07;;;;;;;;;;5083151;28;20468;-72
2022/02/22 08:43:08;;;;;;;13.80;2.57;;;;;;;;;;5090059;28;20456;-72
2022/02/22 08:45:43;;;;;;;14.20;3.30;;;;;;;;;;5096290;28;20448;-72
2022/02/22 08:48:14;;;;;;;8.00;2.53;;;;;;;;;;5094595;28;20847;-72
2022/02/22 08:50:44;;;;;;;9.30;3.10;;;;;;;;;;5117330;28;20450;-72
2022/02/22 08:53:18;;;;;;;15.27;3.17;;;;;;;;;;5097571;28;20485;-72
2022/02/22 08:55:59;;;;;;;17.20;3.93;;;;;;;;;;5087075;28;20915;-72
2022/02/22 08:58:31;;;;;;;17.57;4.23;;;;;;;;;;5098128;28;20494;-72
2022/02/22 09:01:06;;;;;;;9.57;2.40;;;;;;;;;;5087656;28;20460;-70
2022/02/22 09:03:34;;;;;;;12.57;3.00;;;;;;;;;;5079756;28;20933;-72
2022/02/22 09:06:03;;;;;;;13.80;3.50;;;;;;;;;;5076855;28;20444;-72
2022/02/22 09:08:31;;;;;;;14.60;3.00;;;;;;;;;;5088658;28;20447;-72
2022/02/22 09:11:06;;;;;;;20.00;3.80;;;;;;;;;;5091051;28;20554;-72
2022/02/22 09:13:42;;;;;;;14.17;2.77;;;;;;;;;;5089067;28;20462;-72
2022/02/22 09:16:12;;;;;;;14.47;4.83;;;;;;;;;;5084825;28;20504;-71
2022/02/22 09:18:40;;;;;;;14.73;3.70;;;;;;;;;;5099126;28;20448;-71
2022/02/22 09:21:12;;;;;;;15.77;3.67;;;;;;;;;;5093198;28;20455;-72
2022/02/22 09:23:46;;;;;;;22.40;2.93;;;;;;;;;;5085619;28;20443;-71
2022/02/22 09:26:20;;;;;;;18.27;3.60;;;;;;;;;;5097757;28;20450;-71
2022/02/22 09:29:14;;;;;;;22.73;3.80;;;;;;;;;;5092308;28;20463;-71
2022/02/22 09:31:51;;;;;;;16.03;4.43;;;;;;;;;;5089391;28;20448;-71
2022/02/22 09:34:21;;;;;;;12.77;3.10;;;;;;;;;;5099378;28;20553;-71
2022/02/22 09:36:50;;;;;;;11.47;2.70;;;;;;;;;;5087700;28;20452;-70
2022/02/22 09:39:18;;;;;;;12.67;3.00;;;;;;;;;;5085518;28;20554;-70
2022/02/22 09:41:46;;;;;;;19.10;4.00;;;;;;;;;;5078765;28;20449;-71
2022/02/22 09:44:18;;;;;;;13.93;3.27;;;;;;;;;;5092559;28;20487;-71
2022/02/22 09:46:46;;;;;;;15.20;3.07;;;;;;;;;;5079710;28;20453;-70
2022/02/22 09:49:16;;;;;;;7.10;2.27;;;;;;;;;;5077472;28;20897;-70
2022/02/22 09:51:45;;;;;;;11.07;3.37;;;;;;;;;;5095656;28;21135;-71
2022/02/22 09:54:14;;;;;;;13.70;3.67;;;;;;;;;;5089728;28;20482;-71
2022/02/22 09:56:45;;;;;;;21.97;3.40;;;;;;;;;;5093904;28;20879;-71
2022/02/22 09:59:18;;;;;;;13.30;3.37;;;;;;;;;;5098722;28;20919;-72
2022/02/22 10:01:50;;;;;;;18.10;3.03;;;;;;;;;;5090685;28;20459;-72
2022/02/22 10:04:20;;;;;;;11.90;3.90;;;;;;;;;;5086237;28;20445;-69
2022/02/22 10:06:49;;;;;;;21.50;3.10;;;;;;;;;;5081307;28;20465;-72
2022/02/22 10:09:21;;;;;;;19.43;3.57;;;;;;;;;;5085736;28;20865;-73
2022/02/22 10:11:54;;;;;;;24.70;3.97;;;;;;;;;;5077774;28;20471;-72
2022/02/22 10:14:26;;;;;;;20.23;3.80;;;;;;;;;;5076307;28;20480;-72
2022/02/22 10:16:55;;;;;;;31.43;5.10;;;;;;;;;;5079940;28;20456;-72
2022/02/22 10:19:36;;;;;;;21.43;4.13;;;;;;;;;;5097663;28;20458;-72
2022/02/22 10:22:05;;;;;;;14.30;4.13;;;;;;;;;;5081277;28;20732;-72
2022/02/22 10:24:37;;;;;;;11.07;2.50;;;;;;;;;;5090217;28;20542;-73
2022/02/22 10:27:15;;;;;;;13.77;2.93;;;;;;;;;;5096585;28;20452;-73
2022/02/22 10:29:49;;;;;;;18.37;3.40;;;;;;;;;;5091462;28;20458;-72
2022/02/22 10:32:21;;;;;;;12.97;4.43;;;;;;;;;;5096434;28;20467;-71
2022/02/22 10:35:00;;;;;;;20.00;2.97;;;;;;;;;;5097951;28;20479;-70
2022/02/22 10:37:34;;;;;;;10.97;3.23;;;;;;;;;;5097574;28;20471;-73
2022/02/22 10:40:03;;;;;;;13.90;3.63;;;;;;;;;;5098390;28;20518;-72
2022/02/22 10:42:43;;;;;;;8.47;2.90;;;;;;;;;;5094719;28;20548;-71
2022/02/22 10:45:14;;;;;;;12.53;3.90;;;;;;;;;;5095113;28;20444;-73
2022/02/22 10:47:43;;;;;;;10.07;2.73;;;;;;;;;;5081580;28;20586;-72
2022/02/22 10:50:13;;;;;;;11.00;3.00;;;;;;;;;;5095469;28;20745;-72
2022/02/22 10:52:40;;;;;;;9.73;2.30;;;;;;;;;;5094141;28;20456;-72
2022/02/22 10:55:09;;;;;;;8.10;2.33;;;;;;;;;;5095542;28;20480;-71
2022/02/22 10:57:38;;;;;;;11.73;3.93;;;;;;;;;;5095267;28;20467;-73
2022/02/22 11:00:07;;;;;;;13.83;2.97;;;;;;;;;;5087378;28;20463;-72
2022/02/22 11:02:40;;;;;;;10.60;3.60;;;;;;;;;;5089681;28;20475;-73
2022/02/22 11:05:14;;;;;;;10.30;2.33;;;;;;;;;;5093731;28;20535;-72
2022/02/22 11:07:52;;;;;;;11.60;2.27;;;;;;;;;;5093701;28;20518;-73
2022/02/22 11:10:28;;;;;;;12.60;4.90;;;;;;;;;;5089107;28;20486;-72
2022/02/22 11:13:00;;;;;;;11.97;3.20;;;;;;;;;;5083076;28;20450;-72
2022/02/22 11:15:35;;;;;;;11.10;2.17;;;;;;;;;;5096187;28;20554;-72
2022/02/22 11:18:07;;;;;;;18.90;2.70;;;;;;;;;;5094820;28;20479;-70
2022/02/22 11:20:37;;;;;;;11.47;1.93;;;;;;;;;;5092966;28;20464;-72
2022/02/22 11:23:09;;;;;;;8.70;3.63;;;;;;;;;;5094205;28;20486;-71
2022/02/22 11:25:37;;;;;;;11.43;2.03;;;;;;;;;;5074836;28;20464;-72
2022/02/22 11:28:08;;;;;;;17.57;5.63;;;;;;;;;;5078722;28;20455;-71
2022/02/22 11:30:41;;;;;;;8.73;2.73;;;;;;;;;;5059001;28;20762;-72
2022/02/22 11:33:12;;;;;;;16.80;3.90;;;;;;;;;;5063976;28;20449;-72
2022/02/22 11:35:47;;;;;;;9.03;2.20;;;;;;;;;;5058031;28;20999;-73
2022/02/22 11:38:18;;;;;;;8.93;2.20;;;;;;;;;;5077051;28;20489;-72
2022/02/22 11:40:52;;;;;;;13.93;3.40;;;;;;;;;;5074464;28;20551;-72
2022/02/22 11:43:24;;;;;;;19.43;3.20;;;;;;;;;;5066873;28;20740;-72
2022/02/22 11:45:52;;;;;;;9.30;2.70;;;;;;;;;;5066411;28;20460;-72
2022/02/22 11:48:23;;;;;;;15.80;3.10;;;;;;;;;;5084006;28;20444;-73
2022/02/22 11:50:52;;;;;;;14.00;3.47;;;;;;;;;;5072848;28;20460;-72
2022/02/22 11:53:26;;;;;;;13.70;3.17;;;;;;;;;;5073710;28;20459;-72
2022/02/22 11:56:01;;;;;;;13.10;3.90;;;;;;;;;;5073883;28;20481;-73
2022/02/22 11:58:31;;;;;;;10.50;3.63;;;;;;;;;;5080240;28;20448;-72
2022/02/22 12:01:04;;;;;;;8.20;2.17;;;;;;;;;;5069994;28;20518;-72
2022/02/22 12:03:50;;;;;;;17.20;3.13;;;;;;;;;;5075400;28;20449;-72
2022/02/22 12:06:23;;;;;;;13.63;3.23;;;;;;;;;;5069431;28;20464;-70
2022/02/22 12:08:53;;;;;;;13.13;3.47;;;;;;;;;;5054317;28;20453;-73
2022/02/22 12:11:21;;;;;;;21.93;3.97;;;;;;;;;;5083391;28;20534;-71
2022/02/22 12:14:00;;;;;;;12.10;2.87;;;;;;;;;;5072155;28;21032;-72
2022/02/22 12:16:28;;;;;;;6.10;1.53;;;;;;;;;;5075045;28;20484;-72
2022/02/22 12:19:16;;;;;;;24.10;2.77;;;;;;;;;;5079795;28;20453;-71
2022/02/22 12:21:47;;;;;;;7.23;2.67;;;;;;;;;;5072056;28;20518;-71
2022/02/22 12:24:28;;;;;;;8.30;2.30;;;;;;;;;;5070472;28;20467;-71
2022/02/22 12:26:56;;;;;;;16.73;2.97;;;;;;;;;;5090700;28;20491;-72
2022/02/22 12:29:25;;;;;;;9.97;2.27;;;;;;;;;;5092554;28;20447;-73
2022/02/22 12:32:02;;;;;;;10.60;3.63;;;;;;;;;;5092843;28;20839;-73
2022/02/22 12:34:36;;;;;;;13.57;2.80;;;;;;;;;;5083907;28;20542;-74
2022/02/22 12:37:08;;;;;;;14.33;3.03;;;;;;;;;;5091725;28;20582;-73
2022/02/22 12:39:39;;;;;;;8.43;2.27;;;;;;;;;;5094037;28;20502;-72
2022/02/22 12:42:12;;;;;;;11.80;3.23;;;;;;;;;;5093068;28;20463;-73
2022/02/22 12:44:42;;;;;;;5.97;2.53;;;;;;;;;;5094297;28;20436;-73
2022/02/22 12:47:10;;;;;;;12.47;2.70;;;;;;;;;;5096118;28;20870;-73
2022/02/22 12:49:39;;;;;;;15.00;2.50;;;;;;;;;;5084967;28;20518;-73
2022/02/22 12:52:10;;;;;;;9.80;2.60;;;;;;;;;;5092930;28;20447;-73
2022/02/22 12:54:40;;;;;;;10.27;3.27;;;;;;;;;;5093308;28;20471;-72
2022/02/22 12:57:08;;;;;;;14.13;3.30;;;;;;;;;;5102588;28;20954;-72
2022/02/22 12:59:36;;;;;;;8.47;4.00;;;;;;;;;;5094702;28;20731;-72
2022/02/22 13:02:05;;;;;;;8.70;2.20;;;;;;;;;;5093939;28;20460;-73
2022/02/22 13:04:36;;;;;;;11.07;3.33;;;;;;;;;;5092262;28;20455;-73
2022/02/22 13:07:14;;;;;;;9.07;2.87;;;;;;;;;;5094068;28;20452;-73
2022/02/22 13:09:48;;;;;;;15.77;2.50;;;;;;;;;;5093812;28;20487;-71
2022/02/22 13:12:21;;;;;;;16.80;3.00;;;;;;;;;;5094012;28;20443;-73
2022/02/22 13:14:50;;;;;;;10.80;2.63;;;;;;;;;;5084933;28;20452;-72
2022/02/22 13:17:19;;;;;;;9.37;2.33;;;;;;;;;;5088597;28;20480;-73
2022/02/22 13:19:53;;;;;;;10.23;2.73;;;;;;;;;;5097360;28;20513;-73
2022/02/22 13:22:42;;;;;;;3.63;2.27;;;;;;;;;;5098241;28;20462;-73
2022/02/22 13:25:13;;;;;;;9.50;1.90;;;;;;;;;;5094843;28;20499;-73
2022/02/22 13:27:47;;;;;;;13.53;2.87;;;;;;;;;;5083054;28;21023;-74
2022/02/22 13:30:16;;;;;;;11.17;2.83;;;;;;;;;;5081233;28;20452;-73
2022/02/22 13:32:45;;;;;;;15.73;2.80;;;;;;;;;;5090868;28;20454;-73
2022/02/22 13:35:21;;;;;;;13.43;2.67;;;;;;;;;;5098393;28;20444;-74
2022/02/22 13:37:50;;;;;;;18.03;5.20;;;;;;;;;;5082640;28;20503;-72
2022/02/22 13:40:27;;;;;;;15.80;3.30;;;;;;;;;;5077319;28;20463;-73
2022/02/22 13:43:01;;;;;;;12.30;3.70;;;;;;;;;;5077626;28;20452;-72
2022/02/22 13:45:32;;;;;;;7.80;2.60;;;;;;;;;;5077514;28;20476;-72
2022/02/22 13:48:04;;;;;;;10.30;2.83;;;;;;;;;;5067336;28;20460;-72
2022/02/22 13:50:36;;;;;;;15.73;3.57;;;;;;;;;;5057281;28;20522;-72
2022/02/22 13:53:09;;;;;;;12.23;6.13;;;;;;;;;;5063854;28;20444;-73
2022/02/22 13:55:51;;;;;;;13.40;2.83;;;;;;;;;;5076776;28;20534;-73
2022/02/22 13:58:23;;;;;;;12.77;1.97;;;;;;;;;;5077023;28;20572;-72
2022/02/22 14:00:51;;;;;;;10.00;2.87;;;;;;;;;;5076426;28;20877;-72
2022/02/22 14:03:20;;;;;;;13.70;3.03;;;;;;;;;;5075826;28;20865;-72
2022/02/22 14:05:50;;;;;;;11.93;2.80;;;;;;;;;;5075537;28;20444;-72
2022/02/22 14:08:18;;;;;;;10.50;2.10;;;;;;;;;;5096744;28;20860;-72
2022/02/22 14:10:48;;;;;;;9.00;2.03;;;;;;;;;;5079631;28;20545;-72
2022/02/22 14:13:16;;;;;;;10.47;2.60;;;;;;;;;;5074561;28;20465;-72
2022/02/22 14:15:50;;;;;;;11.73;2.87;;;;;;;;;;5055904;28;20740;-72
2022/02/22 14:18:17;;;;;;;10.70;3.10;;;;;;;;;;5055998;28;20461;-72
2022/02/22 14:20:47;;;;;;;12.53;3.43;;;;;;;;;;5057946;28;20484;-72
2022/02/22 14:23:16;;;;;;;10.30;2.77;;;;;;;;;;5055006;28;20465;-72
2022/02/22 14:25:49;;;;;;;15.53;5.83;;;;;;;;;;5064434;28;20521;-73
2022/02/22 14:28:17;;;;;;;11.40;2.70;;;;;;;;;;5101199;28;20468;-72
2022/02/22 14:30:45;;;;;;;8.20;3.37;;;;;;;;;;5095240;28;20448;-72
2022/02/22 14:33:17;;;;;;;22.10;3.97;;;;;;;;;;5093708;28;20513;-71
2022/02/22 14:35:45;;;;;;;11.43;2.70;;;;;;;;;;5092471;28;20476;-71
2022/02/22 14:38:16;;;;;;;5.07;2.80;;;;;;;;;;5099971;28;21077;-73
2022/02/22 14:40:46;;;;;;;14.40;3.70;;;;;;;;;;5114364;28;20462;-72
2022/02/22 14:43:16;;;;;;;17.10;2.90;;;;;;;;;;5101372;28;20470;-72
2022/02/22 14:45:44;;;;;;;13.20;3.27;;;;;;;;;;5098645;28;20803;-73
2022/02/22 14:48:20;;;;;;;15.53;5.17;;;;;;;;;;5115730;28;20486;-73
2022/02/22 14:50:49;;;;;;;16.83;2.33;;;;;;;;;;5115860;28;20438;-72
2022/02/22 14:53:18;;;;;;;11.53;2.60;;;;;;;;;;5101378;28;20451;-73